Time;durP1;ratioP1;P1;durP2;ratioP2;P2;SDS_P1;SDS_P2;PMS_P1;PMS_P2;Temp;Humidity;BMP_temperature;BMP_pressure;BME280_temperature;BME280_humidity;BME280_pressure;Samples;Min_cycle;Max_cycle;Signal;HPM_P1;HPM_P2
2023/04/05 00:02:39;;;;;;;21.20;10.70;;;;;;;;;;8363318;28;20056;-80
2023/04/05 00:06:42;;;;;;;35.10;13.73;;;;;;;;;;8363804;28;20129;-81
2023/04/05 00:10:45;;;;;;;29.58;12.05;;;;;;;;;;8362955;28;20489;-78
2023/04/05 00:14:48;;;;;;;24.85;11.25;;;;;;;;;;8363309;28;20051;-79
2023/04/05 00:18:52;;;;;;;24.48;10.10;;;;;;;;;;8362574;28;20061;-77
2023/04/05 00:22:55;;;;;;;26.85;10.40;;;;;;;;;;8362879;28;20390;-76
2023/04/05 00:26:58;;;;;;;25.45;9.90;;;;;;;;;;8363157;28;20396;-77
2023/04/05 00:31:00;;;;;;;21.60;10.32;;;;;;;;;;8362902;28;20401;-77
2023/04/05 00:35:06;;;;;;;27.35;11.20;;;;;;;;;;8363009;28;20064;-76
2023/04/05 00:39:08;;;;;;;27.92;11.30;;;;;;;;;;8362657;28;20079;-78
2023/04/05 00:43:11;;;;;;;29.13;12.50;;;;;;;;;;8362340;28;20052;-82
2023/04/05 00:47:14;;;;;;;30.10;12.88;;;;;;;;;;8362545;28;20485;-77
2023/04/05 00:51:19;;;;;;;35.03;13.43;;;;;;;;;;8360508;28;20044;-77
2023/04/05 00:55:22;;;;;;;31.38;13.25;;;;;;;;;;8352358;28;20075;-78
2023/04/05 00:59:24;;;;;;;36.25;15.00;;;;;;;;;;8361289;28;20057;-79
2023/04/05 01:03:30;;;;;;;35.15;15.20;;;;;;;;;;8362482;28;20049;-79
2023/04/05 01:07:42;;;;;;;34.60;15.98;;;;;;;;;;8362972;28;20420;-80
2023/04/05 01:11:47;;;;;;;37.38;15.68;;;;;;;;;;8361778;28;20045;-76
2023/04/05 01:15:50;;;;;;;36.58;15.55;;;;;;;;;;8331345;28;20061;-80
2023/04/05 01:19:57;;;;;;;34.42;15.95;;;;;;;;;;8331873;28;20378;-81
2023/04/05 01:24:13;;;;;;;36.00;15.25;;;;;;;;;;8340564;28;20133;-77
2023/04/05 01:28:45;;;;;;;34.88;15.15;;;;;;;;;;8364618;28;20049;-80
2023/04/05 01:33:02;;;;;;;34.90;15.05;;;;;;;;;;8339066;28;20058;-85
2023/04/05 01:37:11;;;;;;;34.45;14.80;;;;;;;;;;8354660;28;20049;-78
2023/04/05 01:41:15;;;;;;;31.33;15.52;;;;;;;;;;8368063;28;20443;-86
2023/04/05 01:45:17;;;;;;;35.65;16.55;;;;;;;;;;8368441;28;20469;-79
2023/04/05 01:49:22;;;;;;;29.92;13.20;;;;;;;;;;8367854;28;20052;-80
2023/04/05 01:53:25;;;;;;;32.97;15.27;;;;;;;;;;8353970;28;20045;-84
2023/04/05 01:57:28;;;;;;;39.13;18.02;;;;;;;;;;8367617;28;20135;-79
2023/04/05 02:01:30;;;;;;;40.25;17.02;;;;;;;;;;8367535;28;20051;-80
2023/04/05 02:05:35;;;;;;;43.45;18.90;;;;;;;;;;8367475;28;20045;-86
2023/04/05 02:09:37;;;;;;;45.13;19.13;;;;;;;;;;8366948;28;20037;-87
2023/04/05 02:13:40;;;;;;;40.90;18.20;;;;;;;;;;8367215;28;20073;-82
2023/04/05 02:17:44;;;;;;;46.72;19.17;;;;;;;;;;8366704;28;20052;-86
2023/04/05 02:21:49;;;;;;;39.28;19.13;;;;;;;;;;8367102;28;20485;-76
2023/04/05 02:25:52;;;;;;;36.47;15.05;;;;;;;;;;8367162;28;20044;-78
2023/04/05 02:29:56;;;;;;;28.98;15.45;;;;;;;;;;8366312;28;20393;-80
2023/04/05 02:33:59;;;;;;;31.27;14.05;;;;;;;;;;8365947;28;20049;-77
2023/04/05 02:38:04;;;;;;;25.30;13.73;;;;;;;;;;8366265;28;20404;-79
2023/04/05 02:42:07;;;;;;;33.88;15.40;;;;;;;;;;8366788;28;20510;-78
2023/04/05 02:46:10;;;;;;;28.67;13.68;;;;;;;;;;8366783;28;20053;-78
2023/04/05 02:50:13;;;;;;;27.52;14.10;;;;;;;;;;8366877;28;20045;-79
2023/04/05 02:54:17;;;;;;;31.85;15.60;;;;;;;;;;8365893;28;20108;-81
2023/04/05 02:58:20;;;;;;;46.55;21.73;;;;;;;;;;8365737;28;20048;-77
2023/04/05 03:02:23;;;;;;;63.65;28.38;;;;;;;;;;8365435;28;20055;-78
2023/04/05 03:06:26;;;;;;;63.38;30.65;;;;;;;;;;8365823;28;20045;-77
2023/04/05 03:10:33;;;;;;;49.88;24.60;;;;;;;;;;8364988;28;20049;-82
2023/04/05 03:14:37;;;;;;;41.85;19.27;;;;;;;;;;8365716;28;20037;-82
2023/04/05 03:18:40;;;;;;;38.50;18.67;;;;;;;;;;8365353;28;20509;-87
2023/04/05 03:22:42;;;;;;;33.70;16.85;;;;;;;;;;8364817;28;20435;-82
2023/04/05 03:26:48;;;;;;;62.38;29.30;;;;;;;;;;8365031;28;20052;-81
2023/04/05 03:30:51;;;;;;;48.92;25.40;;;;;;;;;;8364843;28;20040;-82
2023/04/05 03:34:54;;;;;;;40.35;20.65;;;;;;;;;;8364554;28;20127;-84
2023/04/05 03:38:57;;;;;;;37.60;18.15;;;;;;;;;;8365053;28;20511;-87
2023/04/05 03:43:01;;;;;;;30.58;15.90;;;;;;;;;;8363793;28;20488;-77
2023/04/05 03:47:04;;;;;;;33.55;16.90;;;;;;;;;;8364763;28;20477;-78
2023/04/05 03:51:08;;;;;;;28.38;15.20;;;;;;;;;;8364527;28;20416;-81
2023/04/05 03:55:12;;;;;;;32.85;16.02;;;;;;;;;;8363856;28;20131;-78
2023/04/05 03:59:16;;;;;;;28.15;14.98;;;;;;;;;;8363490;28;20052;-78
2023/04/05 04:03:19;;;;;;;28.23;14.15;;;;;;;;;;8363835;28;20121;-77
2023/04/05 04:07:22;;;;;;;33.00;18.48;;;;;;;;;;8363271;28;20045;-78
2023/04/05 04:11:25;;;;;;;30.42;17.00;;;;;;;;;;8363655;28;20053;-81
2023/04/05 04:15:30;;;;;;;30.40;15.50;;;;;;;;;;8363403;28;20041;-77
2023/04/05 04:19:33;;;;;;;28.92;16.35;;;;;;;;;;8362721;28;20041;-79
2023/04/05 04:23:37;;;;;;;35.45;19.35;;;;;;;;;;8362944;28;20069;-80
2023/04/05 04:27:42;;;;;;;40.38;22.80;;;;;;;;;;8363385;28;20037;-76
2023/04/05 04:31:47;;;;;;;49.70;26.90;;;;;;;;;;8363333;28;20139;-77
2023/04/05 04:35:53;;;;;;;41.92;19.83;;;;;;;;;;8362692;28;20045;-78
2023/04/05 04:40:01;;;;;;;31.73;16.73;;;;;;;;;;8362530;28;20045;-85
2023/04/05 04:44:04;;;;;;;30.45;16.25;;;;;;;;;;8362879;28;20041;-77
2023/04/05 04:48:09;;;;;;;24.92;14.45;;;;;;;;;;8362629;28;20642;-77
2023/04/05 04:52:11;;;;;;;28.30;15.07;;;;;;;;;;8361128;28;20508;-83
2023/04/05 04:56:14;;;;;;;28.63;14.65;;;;;;;;;;8362206;28;20116;-80
2023/04/05 05:00:17;;;;;;;28.23;14.68;;;;;;;;;;8343598;28;20048;-79
2023/04/05 05:04:22;;;;;;;22.60;12.30;;;;;;;;;;8354256;28;20123;-83
2023/04/05 05:08:25;;;;;;;31.63;14.63;;;;;;;;;;8361911;28;20489;-80
2023/04/05 05:12:28;;;;;;;24.60;13.80;;;;;;;;;;8337944;28;20045;-86
2023/04/05 05:16:32;;;;;;;24.05;15.32;;;;;;;;;;8330945;28;20060;-77
2023/04/05 05:20:37;;;;;;;395.20;139.45;;;;;;;;;;8328273;28;20049;-78
2023/04/05 05:24:41;;;;;;;71.90;31.98;;;;;;;;;;8358513;28;20045;-78
2023/04/05 05:28:44;;;;;;;47.97;24.58;;;;;;;;;;8345390;28;20107;-88
2023/04/05 05:32:47;;;;;;;52.25;24.50;;;;;;;;;;8349334;28;20045;-81
2023/04/05 05:36:53;;;;;;;527.72;113.38;;;;;;;;;;8336934;28;20068;-77
2023/04/05 05:40:57;;;;;;;46.65;25.67;;;;;;;;;;8335475;28;20049;-89
2023/04/05 05:45:03;;;;;;;91.70;32.72;;;;;;;;;;8331079;28;20046;-79
2023/04/05 05:49:06;;;;;;;186.30;53.38;;;;;;;;;;8315385;28;20486;-87
2023/04/05 05:53:11;;;;;;;103.32;41.15;;;;;;;;;;8337885;28;20125;-86
2023/04/05 05:57:13;;;;;;;65.82;27.70;;;;;;;;;;8346655;28;20166;-80
2023/04/05 06:01:16;;;;;;;47.17;22.02;;;;;;;;;;8344259;28;20055;-79
2023/04/05 06:05:19;;;;;;;44.40;22.05;;;;;;;;;;8361515;28;20116;-87
2023/04/05 06:09:23;;;;;;;42.47;20.65;;;;;;;;;;8362825;28;20102;-83
2023/04/05 06:13:26;;;;;;;43.22;21.17;;;;;;;;;;8367892;28;20049;-81
2023/04/05 06:17:29;;;;;;;43.58;22.50;;;;;;;;;;8367355;28;20432;-80
2023/04/05 06:21:32;;;;;;;36.97;19.98;;;;;;;;;;8367559;28;20128;-80
2023/04/05 06:25:36;;;;;;;26.45;16.38;;;;;;;;;;8366943;28;20045;-82
2023/04/05 06:29:39;;;;;;;70.70;32.20;;;;;;;;;;8366807;28;20043;-80
2023/04/05 06:33:42;;;;;;;39.72;20.02;;;;;;;;;;8367084;28;20106;-80
2023/04/05 06:37:45;;;;;;;22.10;14.68;;;;;;;;;;8352845;28;20057;-88
2023/04/05 06:41:49;;;;;;;39.58;25.45;;;;;;;;;;8325719;28;20423;-85
2023/04/05 06:45:52;;;;;;;17.23;11.00;;;;;;;;;;8347754;28;20048;-81
2023/04/05 06:49:55;;;;;;;19.45;12.68;;;;;;;;;;8363751;28;20053;-81
2023/04/05 06:53:58;;;;;;;19.98;12.55;;;;;;;;;;8365230;28;20041;-79
2023/04/05 06:58:02;;;;;;;26.98;14.52;;;;;;;;;;8353647;28;20052;-81
2023/04/05 07:02:05;;;;;;;25.95;13.90;;;;;;;;;;8366696;28;20052;-88
2023/04/05 07:06:09;;;;;;;27.15;14.52;;;;;;;;;;8347443;28;20517;-80
2023/04/05 07:10:12;;;;;;;25.30;12.90;;;;;;;;;;8354303;28;20401;-81
2023/04/05 07:14:16;;;;;;;27.25;12.55;;;;;;;;;;8353916;28;20041;-80
2023/04/05 07:18:20;;;;;;;23.88;12.07;;;;;;;;;;8365229;28;20064;-80
2023/04/05 07:22:22;;;;;;;25.63;11.77;;;;;;;;;;8366165;28;20041;-88
2023/04/05 07:26:26;;;;;;;22.90;11.85;;;;;;;;;;8364832;28;20041;-89
2023/04/05 07:30:31;;;;;;;15.27;8.45;;;;;;;;;;8364513;28;20045;-81
2023/04/05 07:34:35;;;;;;;16.77;8.73;;;;;;;;;;8351195;28;20489;-81
2023/04/05 07:38:38;;;;;;;27.65;12.73;;;;;;;;;;8353047;28;20052;-81
2023/04/05 07:42:41;;;;;;;13.95;6.60;;;;;;;;;;8325492;28;20041;-81
2023/04/05 07:46:45;;;;;;;23.80;11.48;;;;;;;;;;8318808;28;20081;-80
2023/04/05 07:50:51;;;;;;;9.27;4.88;;;;;;;;;;8360031;28;20045;-81
2023/04/05 07:54:55;;;;;;;6.25;3.33;;;;;;;;;;8361504;28;20060;-81
2023/04/05 07:58:58;;;;;;;11.13;5.22;;;;;;;;;;8360776;28;20059;-81
2023/04/05 08:03:03;;;;;;;9.30;3.72;;;;;;;;;;8340472;28;20615;-82
2023/04/05 08:07:06;;;;;;;9.15;4.15;;;;;;;;;;8309798;28;20053;-81
2023/04/05 08:11:09;;;;;;;8.85;4.18;;;;;;;;;;8326069;28;20076;-82
2023/04/05 08:15:12;;;;;;;7.43;3.30;;;;;;;;;;8325656;28;20042;-83
2023/04/05 08:19:16;;;;;;;8.30;4.35;;;;;;;;;;8321060;28;20059;-89
2023/04/05 08:23:19;;;;;;;9.98;4.35;;;;;;;;;;8321229;28;20456;-80
2023/04/05 08:27:22;;;;;;;9.02;3.78;;;;;;;;;;8313620;28;20440;-80
2023/04/05 08:31:25;;;;;;;10.05;4.78;;;;;;;;;;8308972;28;20123;-81
2023/04/05 08:35:29;;;;;;;9.45;4.30;;;;;;;;;;8305747;28;20116;-87
2023/04/05 08:39:33;;;;;;;7.30;3.03;;;;;;;;;;8323363;28;20053;-84
2023/04/05 08:43:45;;;;;;;11.05;4.63;;;;;;;;;;8324695;28;20494;-84
2023/04/05 08:47:52;;;;;;;6.50;3.22;;;;;;;;;;8310397;28;20066;-81
2023/04/05 08:52:00;;;;;;;13.32;4.93;;;;;;;;;;8333483;28;20059;-85
2023/04/05 08:56:04;;;;;;;7.30;2.65;;;;;;;;;;8329454;28;20135;-82
2023/04/05 09:00:12;;;;;;;7.80;3.05;;;;;;;;;;8328097;28;20095;-82
2023/04/05 09:04:19;;;;;;;7.53;4.03;;;;;;;;;;8309224;28;20150;-83
2023/04/05 09:08:24;;;;;;;14.20;4.22;;;;;;;;;;8338174;28;20497;-86
2023/04/05 09:12:28;;;;;;;11.45;4.05;;;;;;;;;;8325209;28;20053;-84
2023/04/05 09:16:32;;;;;;;7.90;4.32;;;;;;;;;;8318630;28;20485;-86
2023/04/05 09:20:35;;;;;;;8.48;4.53;;;;;;;;;;8311273;28;20128;-87
2023/04/05 09:24:41;;;;;;;9.98;4.85;;;;;;;;;;8304157;28;20671;-89
2023/04/05 09:28:44;;;;;;;9.82;4.43;;;;;;;;;;8304000;28;20146;-81
2023/04/05 09:32:47;;;;;;;11.82;4.63;;;;;;;;;;8310569;28;20489;-87
2023/04/05 09:36:51;;;;;;;7.38;4.00;;;;;;;;;;8312602;28;20401;-87
2023/04/05 09:40:55;;;;;;;11.20;4.55;;;;;;;;;;8320778;28;20037;-83
2023/04/05 09:45:01;;;;;;;7.72;3.95;;;;;;;;;;8321225;28;20049;-80
2023/04/05 09:49:05;;;;;;;4.22;2.63;;;;;;;;;;8320451;28;20115;-81
2023/04/05 09:53:14;;;;;;;7.40;3.47;;;;;;;;;;8329482;28;20437;-80
2023/04/05 09:57:19;;;;;;;9.43;4.20;;;;;;;;;;8315613;28;20045;-85
2023/04/05 10:01:22;;;;;;;10.18;4.40;;;;;;;;;;8316330;28;20050;-81
2023/04/05 10:05:26;;;;;;;8.13;4.20;;;;;;;;;;8324193;28;20054;-85
2023/04/05 10:09:29;;;;;;;7.40;3.90;;;;;;;;;;8322286;28;20079;-84
2023/04/05 10:13:35;;;;;;;8.27;3.95;;;;;;;;;;8317133;28;20049;-83
2023/04/05 10:17:48;;;;;;;8.40;4.18;;;;;;;;;;8328515;28;20481;-82
2023/04/05 10:21:52;;;;;;;7.47;3.50;;;;;;;;;;8320161;28;20052;-84
2023/04/05 10:26:05;;;;;;;10.70;3.58;;;;;;;;;;8312394;28;20053;-83
2023/04/05 10:30:11;;;;;;;6.80;3.72;;;;;;;;;;8312608;28;20122;-81
2023/04/05 10:34:25;;;;;;;10.15;3.65;;;;;;;;;;8323614;28;20049;-82
2023/04/05 10:38:29;;;;;;;6.88;3.65;;;;;;;;;;8314463;28;20045;-84
2023/04/05 10:42:41;;;;;;;9.15;3.90;;;;;;;;;;8323539;28;20053;-85
2023/04/05 10:46:46;;;;;;;8.55;3.78;;;;;;;;;;8308945;28;20042;-83
2023/04/05 10:50:49;;;;;;;8.30;3.30;;;;;;;;;;8326029;28;20046;-89
2023/04/05 10:54:53;;;;;;;5.15;2.70;;;;;;;;;;8303502;28;20556;-84
2023/04/05 10:58:56;;;;;;;7.53;3.13;;;;;;;;;;8305609;28;20060;-86
2023/04/05 11:03:01;;;;;;;6.20;3.10;;;;;;;;;;8328483;28;20137;-82
2023/04/05 11:07:15;;;;;;;7.43;4.28;;;;;;;;;;8316545;28;20403;-86
2023/04/05 11:11:19;;;;;;;4.43;2.85;;;;;;;;;;8317959;28;20558;-84
2023/04/05 11:15:33;;;;;;;5.05;2.85;;;;;;;;;;8319529;28;20041;-83
2023/04/05 11:19:51;;;;;;;6.68;3.50;;;;;;;;;;8307187;28;20045;-83
2023/04/05 11:24:05;;;;;;;6.13;3.20;;;;;;;;;;8317892;28;20057;-81
2023/04/05 11:28:08;;;;;;;17.10;4.20;;;;;;;;;;8305203;28;20045;-87
2023/04/05 11:32:13;;;;;;;10.15;4.10;;;;;;;;;;8316791;28;20041;-80
2023/04/05 11:36:30;;;;;;;6.95;3.70;;;;;;;;;;8319937;28;20056;-80
2023/04/05 11:40:34;;;;;;;8.40;3.80;;;;;;;;;;8317913;28;20539;-88
2023/04/05 11:44:42;;;;;;;7.32;3.20;;;;;;;;;;8314904;28;20045;-84
2023/04/05 11:48:49;;;;;;;6.10;3.05;;;;;;;;;;8310245;28;20453;-80
2023/04/05 11:53:14;;;;;;;8.45;3.40;;;;;;;;;;8312325;28;20053;-80
2023/04/05 11:57:20;;;;;;;9.55;4.50;;;;;;;;;;8309790;28;20561;-87
2023/04/05 12:01:23;;;;;;;9.20;4.43;;;;;;;;;;8318516;28;20046;-82
2023/04/05 12:05:25;;;;;;;5.50;3.22;;;;;;;;;;8313660;28;20049;-81
2023/04/05 12:09:30;;;;;;;8.02;3.70;;;;;;;;;;8307720;28;20046;-85
2023/04/05 12:13:35;;;;;;;6.25;3.58;;;;;;;;;;8304173;28;20046;-80
2023/04/05 12:17:46;;;;;;;7.10;3.90;;;;;;;;;;8317230;28;20061;-82
2023/04/05 12:21:49;;;;;;;8.15;3.78;;;;;;;;;;8318233;28;20066;-81
2023/04/05 12:25:54;;;;;;;6.60;3.85;;;;;;;;;;8316521;28;20041;-81
2023/04/05 12:30:13;;;;;;;5.32;3.17;;;;;;;;;;8322924;28;20045;-80
2023/04/05 12:34:24;;;;;;;8.32;4.07;;;;;;;;;;8353247;28;20047;-81
2023/04/05 12:38:28;;;;;;;9.83;4.53;;;;;;;;;;8337618;28;20477;-85
2023/04/05 12:42:35;;;;;;;9.45;5.15;;;;;;;;;;8330671;28;20048;-82
2023/04/05 12:46:41;;;;;;;8.70;4.60;;;;;;;;;;8312052;28;20049;-82
2023/04/05 12:50:45;;;;;;;11.80;5.80;;;;;;;;;;8325697;28;20099;-80
2023/04/05 12:54:54;;;;;;;8.70;3.72;;;;;;;;;;8314142;28;20052;-80
2023/04/05 12:58:59;;;;;;;7.65;4.03;;;;;;;;;;8316824;28;20406;-92
2023/04/05 13:03:02;;;;;;;12.23;5.00;;;;;;;;;;8318596;28;20148;-85
2023/04/05 13:07:05;;;;;;;9.80;4.93;;;;;;;;;;8316494;28;20049;-82
2023/04/05 13:11:08;;;;;;;8.65;4.72;;;;;;;;;;8310473;28;20060;-81
2023/04/05 13:15:13;;;;;;;8.93;4.72;;;;;;;;;;8317165;28;20152;-86
2023/04/05 13:19:15;;;;;;;8.23;4.50;;;;;;;;;;8318906;28;20528;-81
2023/04/05 13:23:18;;;;;;;11.90;5.95;;;;;;;;;;8317593;28;20041;-85
2023/04/05 13:27:21;;;;;;;6.13;3.97;;;;;;;;;;8342282;28;20048;-79
2023/04/05 13:31:25;;;;;;;9.02;5.10;;;;;;;;;;8338665;28;20053;-82
2023/04/05 13:35:28;;;;;;;20.77;8.10;;;;;;;;;;8361817;28;20084;-82
2023/04/05 13:39:31;;;;;;;8.10;4.35;;;;;;;;;;8361753;28;20404;-83
2023/04/05 13:43:34;;;;;;;9.18;5.15;;;;;;;;;;8360916;28;20045;-86
2023/04/05 13:47:38;;;;;;;5.47;2.47;;;;;;;;;;8342702;28;20048;-84
2023/04/05 13:51:41;;;;;;;9.55;5.20;;;;;;;;;;8359782;28;20040;-81
2023/04/05 13:55:44;;;;;;;10.45;4.88;;;;;;;;;;8360770;28;20103;-83
2023/04/05 13:59:47;;;;;;;10.70;5.63;;;;;;;;;;8361803;28;20040;-88
2023/04/05 14:03:52;;;;;;;15.25;6.88;;;;;;;;;;8361137;28;20049;-87
2023/04/05 14:07:56;;;;;;;18.40;8.45;;;;;;;;;;8362300;28;20387;-82
2023/04/05 14:12:01;;;;;;;8.32;5.00;;;;;;;;;;8330324;28;20038;-86
2023/04/05 14:16:07;;;;;;;9.10;5.22;;;;;;;;;;8360661;28;20424;-79
2023/04/05 14:20:13;;;;;;;15.57;7.90;;;;;;;;;;8328637;28;20068;-85
2023/04/05 14:24:16;;;;;;;9.18;5.45;;;;;;;;;;8339766;28;20505;-89
2023/04/05 14:28:21;;;;;;;10.40;5.05;;;;;;;;;;8332479;28;20128;-92
2023/04/05 14:32:26;;;;;;;9.60;5.13;;;;;;;;;;8345336;28;20056;-83
2023/04/05 14:36:33;;;;;;;15.20;5.40;;;;;;;;;;8358790;28;20048;-85
2023/04/05 14:40:36;;;;;;;10.05;4.53;;;;;;;;;;8364762;28;20048;-84
2023/04/05 14:44:39;;;;;;;13.02;7.00;;;;;;;;;;8366163;28;20048;-82
2023/04/05 14:48:42;;;;;;;11.82;5.35;;;;;;;;;;8365874;28;20041;-86
2023/04/05 14:52:46;;;;;;;12.00;6.00;;;;;;;;;;8365485;28;20381;-85
2023/04/05 14:56:49;;;;;;;22.95;11.77;;;;;;;;;;8353592;28;20060;-85
2023/04/05 15:00:52;;;;;;;30.58;16.08;;;;;;;;;;8365624;28;20049;-81
2023/04/05 15:04:54;;;;;;;67.40;25.08;;;;;;;;;;8365741;28;20052;-85
2023/04/05 15:08:59;;;;;;;11.35;5.72;;;;;;;;;;8365986;28;20099;-84
2023/04/05 15:13:02;;;;;;;9.05;4.75;;;;;;;;;;8365412;28;20049;-82
2023/04/05 15:17:04;;;;;;;10.05;5.43;;;;;;;;;;8364599;28;20061;-82
2023/04/05 15:21:07;;;;;;;11.45;6.47;;;;;;;;;;8365041;28;20052;-78
2023/04/05 15:25:12;;;;;;;66.13;19.95;;;;;;;;;;8365375;28;20049;-85
2023/04/05 15:29:15;;;;;;;9.00;5.03;;;;;;;;;;8365125;28;20044;-80
2023/04/05 15:33:18;;;;;;;5.13;3.33;;;;;;;;;;8364618;28;20049;-85
2023/04/05 15:37:21;;;;;;;40.85;14.85;;;;;;;;;;8364477;28;20041;-80
2023/04/05 15:41:25;;;;;;;33.22;12.00;;;;;;;;;;8363920;28;20124;-86
2023/04/05 15:45:28;;;;;;;21.20;10.23;;;;;;;;;;8364564;28;20052;-86
2023/04/05 15:49:31;;;;;;;21.52;13.10;;;;;;;;;;8362938;28;20045;-80
2023/04/05 15:53:34;;;;;;;10.57;4.97;;;;;;;;;;8338234;28;20045;-84
2023/04/05 15:57:38;;;;;;;10.80;4.57;;;;;;;;;;8364211;28;20041;-84
2023/04/05 16:01:41;;;;;;;9.90;4.35;;;;;;;;;;8364144;28;20051;-82
2023/04/05 16:05:44;;;;;;;10.15;5.18;;;;;;;;;;8363788;28;20045;-83
2023/04/05 16:09:47;;;;;;;27.83;10.40;;;;;;;;;;8363527;28;20406;-84
2023/04/05 16:13:53;;;;;;;13.93;6.55;;;;;;;;;;8363808;28;20127;-82
2023/04/05 16:17:57;;;;;;;149.70;50.55;;;;;;;;;;8363337;28;20128;-81
2023/04/05 16:22:01;;;;;;;58.15;16.80;;;;;;;;;;8363850;28;20045;-79
2023/04/05 16:26:05;;;;;;;50.28;16.52;;;;;;;;;;8364028;28;20045;-79
2023/04/05 16:30:10;;;;;;;153.52;41.17;;;;;;;;;;8362927;28;20095;-82
2023/04/05 16:34:13;;;;;;;16.45;7.53;;;;;;;;;;8362293;28;20060;-81
2023/04/05 16:38:16;;;;;;;28.05;8.80;;;;;;;;;;8322113;28;20050;-79
2023/04/05 16:42:19;;;;;;;16.05;5.95;;;;;;;;;;8334008;28;20049;-80
2023/04/05 16:46:23;;;;;;;11.55;6.07;;;;;;;;;;8350769;28;20053;-80
2023/04/05 16:50:26;;;;;;;8.27;4.22;;;;;;;;;;8361805;28;20413;-80
2023/04/05 16:54:30;;;;;;;9.35;5.40;;;;;;;;;;8362512;28;20056;-79
2023/04/05 16:58:33;;;;;;;10.68;5.13;;;;;;;;;;8361587;28;20049;-83
2023/04/05 17:02:37;;;;;;;12.48;5.57;;;;;;;;;;8361520;28;20048;-80
2023/04/05 17:06:41;;;;;;;31.08;12.18;;;;;;;;;;8361879;28;20045;-80
2023/04/05 17:10:44;;;;;;;27.88;10.20;;;;;;;;;;8352450;28;20473;-85
2023/04/05 17:14:47;;;;;;;30.52;11.07;;;;;;;;;;8330924;28;20090;-81
2023/04/05 17:18:51;;;;;;;98.13;27.10;;;;;;;;;;8346769;28;20049;-79
2023/04/05 17:22:57;;;;;;;101.90;27.55;;;;;;;;;;8333762;28;20069;-79
2023/04/05 17:27:00;;;;;;;13.82;6.13;;;;;;;;;;8344850;28;20037;-83
2023/04/05 17:31:03;;;;;;;16.63;6.43;;;;;;;;;;8361790;28;20048;-83
2023/04/05 17:35:08;;;;;;;12.38;5.95;;;;;;;;;;8361439;28;20064;-85
2023/04/05 17:39:11;;;;;;;24.23;10.63;;;;;;;;;;8342138;28;20482;-85
2023/04/05 17:43:14;;;;;;;83.15;26.40;;;;;;;;;;8347031;28;20432;-84
2023/04/05 17:47:17;;;;;;;41.67;20.83;;;;;;;;;;8336815;28;20124;-80
2023/04/05 17:51:22;;;;;;;44.25;21.65;;;;;;;;;;8354066;28;20499;-78
2023/04/05 17:55:24;;;;;;;78.57;32.03;;;;;;;;;;8326127;28;20037;-79
2023/04/05 17:59:27;;;;;;;84.55;33.75;;;;;;;;;;8349137;28;20053;-79
2023/04/05 18:03:30;;;;;;;119.40;34.85;;;;;;;;;;8339974;28;20367;-80
2023/04/05 18:07:37;;;;;;;244.05;61.47;;;;;;;;;;8354488;28;20412;-79
2023/04/05 18:11:45;;;;;;;489.55;146.85;;;;;;;;;;8349764;28;20103;-79
2023/04/05 18:15:52;;;;;;;542.38;154.30;;;;;;;;;;8353073;28;20052;-80
2023/04/05 18:19:56;;;;;;;602.58;208.23;;;;;;;;;;8367199;28;20037;-82
2023/04/05 18:24:00;;;;;;;518.50;146.52;;;;;;;;;;8326314;28;20133;-81
2023/04/05 18:28:04;;;;;;;112.25;37.47;;;;;;;;;;8332402;28;20409;-80
2023/04/05 18:32:08;;;;;;;27.38;14.50;;;;;;;;;;8364208;28;20047;-82
2023/04/05 18:36:11;;;;;;;17.13;9.63;;;;;;;;;;8365512;28;20346;-78
2023/04/05 18:40:16;;;;;;;15.60;8.73;;;;;;;;;;8365249;28;20503;-84
2023/04/05 18:44:19;;;;;;;17.00;8.18;;;;;;;;;;8359947;28;20049;-79
2023/04/05 18:48:24;;;;;;;15.75;7.63;;;;;;;;;;8360807;28;20044;-79
2023/04/05 18:52:34;;;;;;;18.45;9.65;;;;;;;;;;8347357;28;20132;-79
2023/04/05 18:56:39;;;;;;;20.85;9.98;;;;;;;;;;8344317;28;20048;-78
2023/04/05 19:00:44;;;;;;;21.80;11.25;;;;;;;;;;8359525;28;20049;-79
2023/04/05 19:04:47;;;;;;;30.02;13.63;;;;;;;;;;8364635;28;20045;-78
2023/04/05 19:08:50;;;;;;;23.27;11.27;;;;;;;;;;8364308;28;20048;-78
2023/04/05 19:12:55;;;;;;;20.88;10.02;;;;;;;;;;8363315;28;20075;-79
2023/04/05 19:16:58;;;;;;;22.13;10.63;;;;;;;;;;8362483;28;20505;-80
2023/04/05 19:21:01;;;;;;;20.38;10.93;;;;;;;;;;8363896;28;20055;-79
2023/04/05 19:25:05;;;;;;;33.58;17.35;;;;;;;;;;8337247;28;20114;-78
2023/04/05 19:29:10;;;;;;;36.72;17.50;;;;;;;;;;8339457;28;20079;-82
2023/04/05 19:33:14;;;;;;;30.10;17.25;;;;;;;;;;8363735;28;20041;-84
2023/04/05 19:37:18;;;;;;;49.75;19.58;;;;;;;;;;8363462;28;20513;-79
2023/04/05 19:41:23;;;;;;;34.53;16.38;;;;;;;;;;8363311;28;20139;-80
2023/04/05 19:45:30;;;;;;;27.60;17.13;;;;;;;;;;8339380;28;20044;-76
2023/04/05 19:49:44;;;;;;;22.83;14.15;;;;;;;;;;8332790;28;20096;-82
2023/04/05 19:53:53;;;;;;;21.25;12.90;;;;;;;;;;8352402;28;20053;-81
2023/04/05 19:58:04;;;;;;;23.13;13.02;;;;;;;;;;8347457;28;20086;-82
2023/04/05 20:02:19;;;;;;;23.98;12.98;;;;;;;;;;8319265;28;20489;-83
2023/04/05 20:06:24;;;;;;;24.55;13.77;;;;;;;;;;8354590;28;20119;-82
2023/04/05 20:10:41;;;;;;;23.17;14.02;;;;;;;;;;8362538;28;20051;-79
2023/04/05 20:14:47;;;;;;;24.70;14.32;;;;;;;;;;8362573;28;20052;-85
2023/04/05 20:18:52;;;;;;;23.08;12.68;;;;;;;;;;8349208;28;20110;-77
2023/04/05 20:22:57;;;;;;;21.90;13.02;;;;;;;;;;8361810;28;20114;-82
2023/04/05 20:27:02;;;;;;;20.38;11.95;;;;;;;;;;8362395;28;20140;-81
2023/04/05 20:31:07;;;;;;;19.92;11.82;;;;;;;;;;8362876;28;20124;-78
2023/04/05 20:35:34;;;;;;;22.08;12.55;;;;;;;;;;8363534;28;20564;-77
2023/04/05 20:39:37;;;;;;;22.25;12.35;;;;;;;;;;8363072;28;20135;-77
2023/04/05 20:43:41;;;;;;;19.98;12.18;;;;;;;;;;8363905;28;20444;-79
2023/04/05 20:47:44;;;;;;;28.73;14.10;;;;;;;;;;8362748;28;20040;-76
2023/04/05 20:51:49;;;;;;;22.60;13.73;;;;;;;;;;8362813;28;20052;-80
2023/04/05 20:55:52;;;;;;;24.98;13.40;;;;;;;;;;8362632;28;20052;-78
2023/04/05 20:59:55;;;;;;;33.92;14.82;;;;;;;;;;8362895;28;20401;-77
2023/04/05 21:03:58;;;;;;;24.60;13.38;;;;;;;;;;8362133;28;20567;-81
2023/04/05 21:08:02;;;;;;;23.60;12.82;;;;;;;;;;8362346;28;20128;-78
2023/04/05 21:12:06;;;;;;;24.98;13.02;;;;;;;;;;8362012;28;20049;-76
2023/04/05 21:16:09;;;;;;;26.35;14.00;;;;;;;;;;8362027;28;20059;-78
2023/04/05 21:20:12;;;;;;;26.13;13.20;;;;;;;;;;8362435;28;20044;-84
2023/04/05 21:24:16;;;;;;;29.30;13.63;;;;;;;;;;8362032;28;20415;-78
2023/04/05 21:28:19;;;;;;;26.40;15.98;;;;;;;;;;8361454;28;20041;-79
2023/04/05 21:32:22;;;;;;;26.63;15.80;;;;;;;;;;8362154;28;20177;-78
2023/04/05 21:36:26;;;;;;;30.85;17.23;;;;;;;;;;8363578;28;20045;-77
2023/04/05 21:40:30;;;;;;;27.98;15.75;;;;;;;;;;8368518;28;20041;-78
2023/04/05 21:44:33;;;;;;;46.70;24.85;;;;;;;;;;8367778;28;20473;-78
2023/04/05 21:48:36;;;;;;;28.15;15.45;;;;;;;;;;8369013;28;20045;-83
2023/04/05 21:52:39;;;;;;;23.85;13.38;;;;;;;;;;8368516;28;20480;-79
2023/04/05 21:56:44;;;;;;;26.92;14.05;;;;;;;;;;8368430;28;20048;-78
2023/04/05 22:00:47;;;;;;;28.88;14.40;;;;;;;;;;8368001;28;20110;-80
2023/04/05 22:04:50;;;;;;;27.08;14.32;;;;;;;;;;8366935;28;20056;-77
2023/04/05 22:08:53;;;;;;;27.38;15.23;;;;;;;;;;8368297;28;20489;-77
2023/04/05 22:12:57;;;;;;;27.20;13.23;;;;;;;;;;8367685;28;20409;-79
2023/04/05 22:17:00;;;;;;;24.77;14.40;;;;;;;;;;8367552;28;20440;-79
2023/04/05 22:21:03;;;;;;;22.02;13.32;;;;;;;;;;8367855;28;20471;-79
2023/04/05 22:25:07;;;;;;;25.55;14.27;;;;;;;;;;8367168;28;20044;-79
2023/04/05 22:29:12;;;;;;;25.55;14.05;;;;;;;;;;8366227;28;20518;-81
2023/04/05 22:33:15;;;;;;;25.98;13.80;;;;;;;;;;8367056;28;20815;-79
2023/04/05 22:37:18;;;;;;;24.08;14.05;;;;;;;;;;8366640;28;20052;-79
2023/04/05 22:41:21;;;;;;;27.95;14.57;;;;;;;;;;8366552;28;20728;-79
2023/04/05 22:45:26;;;;;;;25.63;14.35;;;;;;;;;;8366825;28;20405;-77
2023/04/05 22:49:29;;;;;;;30.60;15.93;;;;;;;;;;8364722;28;20485;-80
2023/04/05 22:53:32;;;;;;;29.77;17.15;;;;;;;;;;8365937;28;20435;-78
2023/04/05 22:57:34;;;;;;;29.65;16.45;;;;;;;;;;8365946;28;20052;-82
2023/04/05 23:01:39;;;;;;;30.30;18.05;;;;;;;;;;8366264;28;20473;-78
2023/04/05 23:05:41;;;;;;;34.85;18.90;;;;;;;;;;8366143;28;20067;-78
2023/04/05 23:09:44;;;;;;;38.45;20.73;;;;;;;;;;8365714;28;20542;-79
2023/04/05 23:13:48;;;;;;;49.00;22.90;;;;;;;;;;8365769;28;20067;-80
2023/04/05 23:17:52;;;;;;;43.88;21.90;;;;;;;;;;8365027;28;20049;-80
2023/04/05 23:21:55;;;;;;;40.00;20.65;;;;;;;;;;8365729;28;20056;-80
2023/04/05 23:25:58;;;;;;;38.60;20.50;;;;;;;;;;8365250;28;20120;-82
2023/04/05 23:30:01;;;;;;;28.52;16.50;;;;;;;;;;8364875;28;20053;-79
2023/04/05 23:34:05;;;;;;;41.55;22.15;;;;;;;;;;8365372;28;20052;-78
2023/04/05 23:38:08;;;;;;;37.95;21.95;;;;;;;;;;8364787;28;20041;-79
2023/04/05 23:42:10;;;;;;;34.95;18.73;;;;;;;;;;8364109;28;20059;-80
2023/04/05 23:46:13;;;;;;;32.00;18.27;;;;;;;;;;8363574;28;20044;-79
2023/04/05 23:50:18;;;;;;;32.38;18.20;;;;;;;;;;8364699;28;20045;-79
2023/04/05 23:54:20;;;;;;;32.38;18.33;;;;;;;;;;8364483;28;20059;-77